createdAt,value
2022-12-08T00:02:03.385Z,98.23
2022-12-08T00:04:53.749Z,97.66
2022-12-08T00:07:41.743Z,98.49
2022-12-08T00:10:46.513Z,98.28
2022-12-08T00:13:01.024Z,98.39
2022-12-08T00:15:30.345Z,97.92
2022-12-08T00:17:59.659Z,98.38
2022-12-08T00:20:29.089Z,98.18
2022-12-08T00:22:59.782Z,98.35
2022-12-08T00:25:29.039Z,98.81
2022-12-08T00:27:58.425Z,99.21
2022-12-08T00:30:27.730Z,99.03
2022-12-08T00:32:56.957Z,98.79
2022-12-08T00:35:26.273Z,99.27
2022-12-08T00:38:00.581Z,98.50
2022-12-08T00:40:31.584Z,98.43
2022-12-08T00:43:00.809Z,99.01
2022-12-08T00:45:30.169Z,98.65
2022-12-08T00:47:59.417Z,99.25
2022-12-08T00:50:28.657Z,98.57
2022-12-08T00:52:57.880Z,98.66
2022-12-08T00:55:27.115Z,97.78
2022-12-08T00:57:57.742Z,98.47
2022-12-08T01:00:27.039Z,98.46
2022-12-08T01:02:56.358Z,98.71
2022-12-08T01:05:25.693Z,98.63
2022-12-08T01:07:55.024Z,98.70
2022-12-08T01:10:24.289Z,98.41
2022-12-08T01:12:53.552Z,99.24
2022-12-08T01:15:24.232Z,98.44
2022-12-08T01:17:53.510Z,98.17
2022-12-08T01:20:22.820Z,98.67
2022-12-08T01:22:52.126Z,99.74
2022-12-08T01:25:21.443Z,98.79
2022-12-08T01:27:50.667Z,99.12
2022-12-08T01:30:20.076Z,99.49
2022-12-08T01:32:50.708Z,99.39
2022-12-08T01:35:19.913Z,98.73
2022-12-08T01:37:49.250Z,98.71
2022-12-08T01:40:19.016Z,98.66
2022-12-08T01:42:48.285Z,99.20
2022-12-08T01:45:24.349Z,99.83
2022-12-08T01:47:58.169Z,99.22
2022-12-08T01:50:29.270Z,98.21
2022-12-08T01:53:02.944Z,99.04
2022-12-08T01:55:37.035Z,99.03
2022-12-08T01:58:12.783Z,98.78
2022-12-08T02:00:42.116Z,99.64
2022-12-08T02:03:17.063Z,99.92
2022-12-08T02:05:47.601Z,99.67
2022-12-08T02:08:17.185Z,99.76
2022-12-08T02:10:48.429Z,100.00
2022-12-08T02:13:20.316Z,100.00
2022-12-08T02:15:59.213Z,100.00
2022-12-08T02:18:42.889Z,99.93
2022-12-08T02:21:17.552Z,100.00
2022-12-08T02:23:55.740Z,100.00
2022-12-08T02:27:06.202Z,100.00
2022-12-08T02:30:01.072Z,100.00
2022-12-08T02:33:12.801Z,100.00
2022-12-08T02:35:50.589Z,100.00
2022-12-08T02:38:26.339Z,100.00
2022-12-08T02:41:04.069Z,100.00
2022-12-08T02:43:40.271Z,99.89
2022-12-08T02:46:12.573Z,99.66
2022-12-08T02:48:43.179Z,100.00
2022-12-08T02:51:13.847Z,99.18
2022-12-08T02:53:43.571Z,99.89
2022-12-08T02:56:29.864Z,99.01
2022-12-08T02:59:19.848Z,99.05
2022-12-08T03:02:07.187Z,100.00
2022-12-08T03:04:44.729Z,99.64
2022-12-08T03:07:22.991Z,99.23
2022-12-08T03:09:57.800Z,99.13
2022-12-08T03:12:32.751Z,98.42
2022-12-08T03:15:08.164Z,97.63
2022-12-08T03:17:40.390Z,98.09
2022-12-08T03:20:14.239Z,98.04
2022-12-08T03:22:47.560Z,98.97
2022-12-08T03:25:18.836Z,99.15
2022-12-08T03:27:48.189Z,98.78
2022-12-08T03:30:17.977Z,98.71
2022-12-08T03:32:51.691Z,98.64
2022-12-08T03:35:25.301Z,98.71
2022-12-08T03:38:03.740Z,99.54
2022-12-08T03:40:33.048Z,98.90
2022-12-08T03:43:02.324Z,98.55
2022-12-08T03:45:32.110Z,98.83
2022-12-08T03:48:01.379Z,98.53
2022-12-08T03:50:30.669Z,98.58
2022-12-08T03:53:01.304Z,98.06
2022-12-08T03:55:30.517Z,98.75
2022-12-08T03:57:59.799Z,97.88
2022-12-08T04:00:29.098Z,97.90
2022-12-08T04:02:58.427Z,97.95
2022-12-08T04:05:27.720Z,99.27
2022-12-08T04:08:01.335Z,98.97
2022-12-08T04:10:30.592Z,98.92
2022-12-08T04:12:59.801Z,98.46
2022-12-08T04:15:29.128Z,98.63
2022-12-08T04:17:58.341Z,99.33
2022-12-08T04:20:27.610Z,99.03
2022-12-08T04:22:56.803Z,98.72
2022-12-08T04:25:27.601Z,99.39
2022-12-08T04:27:56.900Z,99.39
2022-12-08T04:30:26.158Z,99.83
2022-12-08T04:32:55.587Z,100.00
2022-12-08T04:35:24.968Z,100.00
2022-12-08T04:37:54.260Z,100.00
2022-12-08T04:40:23.660Z,100.00
2022-12-08T04:42:54.359Z,100.00
2022-12-08T04:45:23.810Z,100.00
2022-12-08T04:47:53.184Z,100.00
2022-12-08T04:50:22.464Z,100.00
2022-12-08T04:52:51.901Z,100.00
2022-12-08T04:55:21.106Z,100.00
2022-12-08T04:57:50.379Z,100.00
2022-12-08T05:00:21.569Z,100.00
2022-12-08T05:02:50.867Z,100.00
2022-12-08T05:05:20.170Z,100.00
2022-12-08T05:07:49.418Z,100.00
2022-12-08T05:10:18.901Z,100.00
2022-12-08T05:12:48.208Z,100.00
2022-12-08T05:15:17.911Z,100.00
2022-12-08T05:17:49.749Z,100.00
2022-12-08T05:20:19.539Z,100.00
2022-12-08T05:22:48.832Z,100.00
2022-12-08T05:25:18.332Z,100.00
2022-12-08T05:27:47.710Z,100.00
2022-12-08T05:30:17.215Z,100.00
2022-12-08T05:32:46.510Z,100.00
2022-12-08T05:35:17.257Z,100.00
2022-12-08T05:37:46.540Z,100.00
2022-12-08T05:40:16.289Z,100.00
2022-12-08T05:42:45.639Z,100.00
2022-12-08T05:45:15.179Z,100.00
2022-12-08T05:47:44.600Z,100.00
2022-12-08T05:50:14.031Z,100.00
2022-12-08T05:52:44.687Z,100.00
2022-12-08T05:55:13.909Z,100.00
2022-12-08T05:57:43.431Z,100.00
2022-12-08T06:00:14.299Z,100.00
2022-12-08T06:02:43.750Z,100.00
2022-12-08T06:05:13.214Z,100.00
2022-12-08T06:07:42.575Z,100.00
2022-12-08T06:10:14.319Z,100.00
2022-12-08T06:12:43.555Z,100.00
2022-12-08T06:15:13.109Z,100.00
2022-12-08T06:17:42.387Z,100.00
2022-12-08T06:20:12.189Z,100.00
2022-12-08T06:22:41.456Z,100.00
2022-12-08T06:25:13.164Z,100.00
2022-12-08T06:27:42.449Z,100.00
2022-12-08T06:30:12.329Z,100.00
2022-12-08T06:32:41.601Z,100.00
2022-12-08T06:35:11.781Z,100.00
2022-12-08T06:37:41.054Z,100.00
2022-12-08T06:40:12.830Z,100.00
2022-12-08T06:42:47.934Z,100.00
2022-12-08T06:45:18.934Z,100.00
2022-12-08T06:47:48.202Z,100.00
2022-12-08T06:50:17.661Z,100.00
2022-12-08T06:52:58.212Z,100.00
2022-12-08T06:58:23.342Z,100.00
2022-12-08T07:00:52.848Z,100.00
2022-12-08T07:03:22.381Z,100.00
2022-12-08T07:05:51.677Z,100.00
2022-12-08T07:08:20.981Z,100.00
2022-12-08T07:10:51.690Z,100.00
2022-12-08T07:13:21.150Z,100.00
2022-12-08T07:15:50.425Z,100.00
2022-12-08T07:18:19.706Z,100.00
2022-12-08T07:20:49.525Z,100.00
2022-12-08T07:23:18.800Z,100.00
2022-12-08T07:25:48.120Z,100.00
2022-12-08T07:28:18.819Z,100.00
2022-12-08T07:30:48.201Z,100.00
2022-12-08T07:33:17.536Z,100.00
2022-12-08T07:35:49.394Z,100.00
2022-12-08T07:38:19.580Z,100.00
2022-12-08T07:40:49.338Z,100.00
2022-12-08T07:43:20.200Z,100.00
2022-12-08T07:45:49.950Z,100.00
2022-12-08T07:48:19.782Z,100.00
2022-12-08T07:50:49.353Z,100.00
2022-12-08T07:53:18.632Z,100.00
2022-12-08T07:55:47.930Z,100.00
2022-12-08T07:58:17.236Z,100.00
2022-12-08T08:00:47.999Z,100.00
2022-12-08T08:03:17.528Z,100.00
2022-12-08T08:05:49.388Z,100.00
2022-12-08T08:08:18.877Z,100.00
2022-12-08T08:10:48.704Z,100.00
2022-12-08T08:13:18.091Z,100.00
2022-12-08T08:15:48.988Z,100.00
2022-12-08T08:18:18.501Z,100.00
2022-12-08T08:20:47.883Z,100.00
2022-12-08T08:23:17.201Z,100.00
2022-12-08T08:25:46.462Z,100.00
2022-12-08T08:28:15.651Z,100.00
2022-12-08T08:30:45.017Z,100.00
2022-12-08T08:33:15.836Z,100.00
2022-12-08T08:35:45.219Z,100.00
2022-12-08T08:38:14.939Z,100.00
2022-12-08T08:40:44.312Z,100.00
2022-12-08T08:43:34.281Z,100.00
2022-12-08T08:46:06.193Z,100.00
2022-12-08T08:48:37.009Z,100.00
2022-12-08T08:51:10.918Z,100.00
2022-12-08T08:53:40.599Z,100.00
2022-12-08T08:56:11.570Z,100.00
2022-12-08T08:58:40.961Z,100.00
2022-12-08T09:01:10.620Z,100.00
2022-12-08T09:03:41.407Z,100.00
2022-12-08T09:06:10.807Z,100.00
2022-12-08T09:08:40.302Z,100.00
2022-12-08T09:11:10.068Z,100.00
2022-12-08T09:13:39.605Z,100.00
2022-12-08T09:16:10.480Z,100.00
2022-12-08T09:18:41.231Z,100.00
2022-12-08T09:21:13.300Z,100.00
2022-12-08T09:23:42.876Z,100.00
2022-12-08T09:26:12.204Z,100.00
2022-12-08T09:28:46.514Z,100.00
2022-12-08T09:31:16.302Z,100.00
2022-12-08T09:33:47.710Z,100.00
2022-12-08T09:36:18.137Z,100.00
2022-12-08T09:38:47.992Z,100.00
2022-12-08T09:41:22.172Z,100.00
2022-12-08T09:44:04.441Z,100.00
2022-12-08T09:46:35.885Z,100.00
2022-12-08T09:49:15.556Z,100.00
2022-12-08T09:51:47.049Z,100.00
2022-12-08T09:54:21.780Z,100.00
2022-12-08T09:56:55.249Z,100.00
2022-12-08T09:59:28.124Z,100.00
2022-12-08T10:01:57.621Z,100.00
2022-12-08T10:04:32.969Z,100.00
2022-12-08T10:07:14.547Z,100.00
2022-12-08T10:09:50.363Z,100.00
2022-12-08T10:12:24.940Z,100.00
2022-12-08T10:15:01.718Z,99.26
2022-12-08T10:17:38.146Z,100.00
2022-12-08T10:20:17.311Z,100.00
2022-12-08T10:22:52.288Z,100.00
2022-12-08T10:25:27.117Z,100.00
2022-12-08T10:27:56.472Z,100.00
2022-12-08T10:30:26.029Z,100.00
2022-12-08T10:32:56.071Z,100.00
2022-12-08T10:35:43.178Z,100.00
2022-12-08T10:38:19.784Z,100.00
2022-12-08T10:40:51.323Z,99.68
2022-12-08T10:43:24.128Z,100.00
2022-12-08T10:45:53.839Z,100.00
2022-12-08T10:48:27.881Z,100.00
2022-12-08T10:51:00.719Z,100.00
2022-12-08T10:53:31.647Z,100.00
2022-12-08T10:56:15.774Z,100.00
2022-12-08T10:58:46.342Z,100.00
2022-12-08T11:01:25.463Z,100.00
2022-12-08T11:03:58.852Z,99.62
2022-12-08T11:06:34.000Z,99.88
2022-12-08T11:09:05.982Z,98.25
2022-12-08T11:11:47.352Z,99.09
2022-12-08T11:14:20.011Z,97.76
2022-12-08T11:16:51.088Z,97.21
2022-12-08T11:19:21.550Z,97.80
2022-12-08T11:21:52.310Z,95.94
2022-12-08T11:24:28.609Z,96.68
2022-12-08T11:27:03.691Z,96.06
2022-12-08T11:29:35.392Z,97.68
2022-12-08T11:32:09.306Z,96.21
2022-12-08T11:34:43.537Z,95.95
2022-12-08T11:37:24.053Z,95.52
2022-12-08T11:39:56.663Z,95.98
2022-12-08T11:42:37.871Z,95.82
2022-12-08T11:45:13.892Z,96.10
2022-12-08T11:47:55.478Z,95.66
2022-12-08T11:50:31.015Z,96.30
2022-12-08T11:53:03.128Z,95.53
2022-12-08T11:55:40.682Z,94.46
2022-12-08T11:58:18.372Z,94.97
2022-12-08T12:00:47.940Z,94.48
2022-12-08T12:03:28.841Z,94.26
2022-12-08T12:09:20.979Z,94.97
2022-12-08T12:12:19.956Z,94.46
2022-12-08T12:15:32.434Z,96.17
2022-12-08T12:18:08.086Z,96.33
2022-12-08T12:20:50.339Z,95.95
2022-12-08T12:23:25.531Z,95.60
2022-12-08T12:25:59.530Z,95.50
2022-12-08T12:28:32.422Z,95.71
2022-12-08T12:31:06.570Z,95.47
2022-12-08T12:33:37.555Z,94.37
2022-12-08T12:36:09.676Z,94.69
2022-12-08T12:38:59.464Z,95.50
2022-12-08T12:41:36.291Z,95.98
2022-12-08T12:44:24.669Z,95.24
2022-12-08T12:46:59.455Z,93.44
2022-12-08T12:49:54.713Z,92.59
2022-12-08T12:52:43.603Z,92.62
2022-12-08T12:55:31.184Z,92.80
2022-12-08T12:58:23.271Z,92.67
2022-12-08T13:01:36.627Z,94.29
2022-12-08T13:04:09.124Z,92.63
2022-12-08T13:06:42.543Z,93.17
2022-12-08T13:09:28.779Z,93.62
2022-12-08T13:12:01.240Z,93.46
2022-12-08T13:14:37.517Z,93.11
2022-12-08T13:17:13.872Z,93.87
2022-12-08T13:19:50.226Z,93.02
2022-12-08T13:22:58.003Z,92.43
2022-12-08T13:26:08.846Z,93.46
2022-12-08T13:29:08.788Z,93.55
2022-12-08T13:31:46.803Z,92.03
2022-12-08T13:34:23.861Z,92.46
2022-12-08T13:37:02.471Z,93.16
2022-12-08T13:39:48.321Z,91.92
2022-12-08T13:42:25.146Z,92.97
2022-12-08T13:59:34.140Z,92.08
2022-12-08T14:02:06.592Z,92.01
2022-12-08T14:05:09.255Z,92.23
2022-12-08T14:07:26.946Z,92.83
2022-12-08T14:09:56.511Z,92.94
2022-12-08T14:12:27.925Z,93.71
2022-12-08T14:15:03.768Z,94.05
2022-12-08T14:17:34.551Z,94.48
2022-12-08T14:20:17.880Z,94.20
2022-12-08T14:22:47.671Z,94.27
2022-12-08T14:25:18.731Z,95.12
2022-12-08T14:27:49.285Z,94.27
2022-12-08T14:30:22.610Z,93.68
2022-12-08T14:32:55.642Z,93.91
2022-12-08T14:35:29.427Z,94.53
2022-12-08T14:38:00.789Z,93.67
2022-12-08T14:40:34.054Z,93.25
2022-12-08T14:43:17.328Z,94.09
2022-12-08T14:45:53.596Z,93.98
2022-12-08T14:48:25.545Z,93.57
2022-12-08T14:51:06.063Z,93.90
2022-12-08T14:53:41.150Z,94.05
2022-12-08T14:56:19.552Z,94.22
2022-12-08T14:58:50.473Z,93.94
2022-12-08T15:01:24.845Z,93.80
2022-12-08T15:03:55.721Z,93.48
2022-12-08T15:06:26.513Z,94.39
2022-12-08T15:08:59.839Z,94.82
2022-12-08T15:11:35.105Z,93.44
2022-12-08T15:14:04.820Z,94.13
2022-12-08T15:16:40.830Z,94.63
2022-12-08T15:19:23.407Z,94.52
2022-12-08T15:21:54.133Z,94.64
2022-12-08T15:24:26.384Z,95.01
2022-12-08T15:26:56.191Z,95.59
2022-12-08T15:29:28.119Z,95.10
2022-12-08T15:32:00.073Z,95.22
2022-12-08T15:34:29.551Z,96.23
2022-12-08T15:37:00.395Z,96.08
2022-12-08T15:39:33.848Z,96.21
2022-12-08T15:42:04.597Z,95.93
2022-12-08T15:44:33.972Z,96.08
2022-12-08T15:47:03.643Z,96.74
2022-12-08T15:49:33.157Z,96.44
2022-12-08T15:52:11.528Z,97.36
2022-12-08T15:54:41.212Z,96.50
2022-12-08T15:57:35.934Z,96.60
2022-12-08T16:00:51.826Z,96.35
2022-12-08T16:03:59.774Z,96.29
2022-12-08T16:09:17.236Z,96.90
2022-12-08T16:12:07.029Z,97.54
2022-12-08T16:17:29.113Z,96.47
2022-12-08T16:19:58.465Z,96.69
2022-12-08T16:22:54.095Z,96.78
2022-12-08T16:25:22.548Z,97.05
2022-12-08T16:28:12.315Z,97.16
2022-12-08T16:30:43.583Z,97.31
2022-12-08T16:33:13.731Z,97.44
2022-12-08T16:35:43.543Z,98.07
2022-12-08T16:38:16.491Z,98.12
2022-12-08T16:41:05.347Z,97.77
2022-12-08T16:43:35.377Z,99.18
2022-12-08T16:46:05.143Z,98.33
2022-12-08T16:48:34.581Z,98.95
2022-12-08T16:51:04.730Z,98.39
2022-12-08T16:53:34.212Z,99.11
2022-12-08T16:56:04.982Z,98.92
2022-12-08T16:58:34.584Z,99.15
2022-12-08T17:01:03.969Z,98.13
2022-12-08T17:03:34.651Z,98.51
2022-12-08T17:06:10.220Z,97.80
2022-12-08T17:08:39.997Z,98.47
2022-12-08T17:11:13.020Z,99.04
2022-12-08T17:13:43.544Z,98.33
2022-12-08T17:16:16.377Z,98.90
2022-12-08T17:18:45.710Z,99.48
2022-12-08T17:21:16.719Z,98.73
2022-12-08T17:23:46.751Z,99.16
2022-12-08T17:26:17.760Z,98.96
2022-12-08T17:29:02.468Z,99.42
2022-12-08T17:31:33.257Z,99.49
2022-12-08T17:34:03.571Z,99.37
2022-12-08T17:36:33.635Z,98.95
2022-12-08T17:39:03.029Z,98.93
2022-12-08T17:41:33.734Z,98.71
2022-12-08T17:44:03.083Z,98.93
2022-12-08T17:46:35.748Z,99.09
2022-12-08T17:49:13.459Z,99.14
2022-12-08T17:51:42.711Z,98.77
2022-12-08T17:54:11.991Z,98.92
2022-12-08T17:56:43.367Z,98.85
2022-12-08T17:59:13.828Z,99.42
2022-12-08T18:01:43.876Z,99.73
2022-12-08T18:04:13.768Z,100.00
2022-12-08T18:06:43.457Z,99.66
2022-12-08T18:09:12.923Z,100.00
2022-12-08T18:11:46.433Z,100.00
2022-12-08T18:14:16.654Z,99.53
2022-12-08T18:16:47.914Z,99.26
2022-12-08T18:19:17.762Z,99.89
2022-12-08T18:21:47.155Z,98.74
2022-12-08T18:24:22.266Z,98.34
2022-12-08T18:26:53.601Z,97.02
2022-12-08T18:29:23.771Z,97.55
2022-12-08T18:31:53.710Z,98.72
2022-12-08T18:34:23.151Z,99.03
2022-12-08T18:36:52.974Z,100.00
2022-12-08T18:39:24.849Z,100.00
2022-12-08T18:41:56.451Z,100.00
2022-12-08T18:44:26.050Z,100.00
2022-12-08T18:46:55.493Z,100.00
2022-12-08T18:49:25.099Z,100.00
2022-12-08T18:51:54.538Z,100.00
2022-12-08T18:54:37.178Z,100.00
2022-12-08T18:57:15.931Z,100.00
2022-12-08T18:59:45.543Z,100.00
2022-12-08T19:02:15.350Z,100.00
2022-12-08T19:04:44.992Z,100.00
2022-12-08T19:07:17.264Z,100.00
2022-12-08T19:09:46.613Z,100.00
2022-12-08T19:12:17.538Z,100.00
2022-12-08T19:14:46.882Z,100.00
2022-12-08T19:17:16.205Z,100.00
2022-12-08T19:19:45.529Z,100.00
2022-12-08T19:22:14.934Z,100.00
2022-12-08T19:24:44.442Z,100.00
2022-12-08T19:27:13.770Z,100.00
2022-12-08T19:29:44.480Z,100.00
2022-12-08T19:32:13.824Z,100.00
2022-12-08T19:34:43.443Z,100.00
2022-12-08T19:37:13.176Z,100.00
2022-12-08T19:40:01.103Z,100.00
2022-12-08T19:42:47.858Z,100.00
2022-12-08T19:45:22.630Z,100.00
2022-12-08T19:47:51.974Z,100.00
2022-12-08T19:50:40.687Z,100.00
2022-12-08T19:53:12.611Z,99.26
2022-12-08T19:55:43.193Z,98.22
2022-12-08T19:58:12.841Z,98.63
2022-12-08T20:00:44.591Z,99.23
2022-12-08T20:03:16.935Z,99.76
2022-12-08T20:05:48.212Z,100.00
2022-12-08T20:08:17.964Z,100.00
2022-12-08T20:10:48.124Z,100.00
2022-12-08T20:13:34.897Z,100.00
2022-12-08T20:16:06.059Z,100.00
2022-12-08T20:18:36.799Z,100.00
2022-12-08T20:21:06.862Z,100.00
2022-12-08T20:23:37.330Z,100.00
2022-12-08T20:26:07.900Z,100.00
2022-12-08T20:28:38.186Z,100.00
2022-12-08T20:31:09.044Z,100.00
2022-12-08T20:33:38.342Z,100.00
2022-12-08T20:36:08.823Z,100.00
2022-12-08T20:38:38.127Z,100.00
2022-12-08T20:41:10.622Z,100.00
2022-12-08T20:43:40.018Z,100.00
2022-12-08T20:46:12.033Z,100.00
2022-12-08T20:48:41.989Z,100.00
2022-12-08T20:51:14.261Z,100.00
2022-12-08T20:53:43.714Z,100.00
2022-12-08T20:56:17.917Z,100.00
2022-12-08T20:58:47.988Z,100.00
2022-12-08T21:01:21.638Z,100.00
2022-12-08T21:03:52.236Z,100.00
2022-12-08T21:06:27.133Z,100.00
2022-12-08T21:08:56.695Z,100.00
2022-12-08T21:11:26.510Z,100.00
2022-12-08T21:13:56.127Z,100.00
2022-12-08T21:16:27.452Z,100.00
2022-12-08T21:18:57.097Z,100.00
2022-12-08T21:21:26.534Z,100.00
2022-12-08T21:23:56.157Z,100.00
2022-12-08T21:26:26.720Z,100.00
2022-12-08T21:28:56.249Z,100.00
2022-12-08T21:31:29.443Z,100.00
2022-12-08T21:33:59.159Z,100.00
2022-12-08T21:36:28.956Z,100.00
2022-12-08T21:39:01.124Z,100.00
2022-12-08T21:41:48.975Z,100.00
2022-12-08T21:44:20.175Z,100.00
2022-12-08T21:46:51.393Z,100.00
2022-12-08T21:49:21.101Z,100.00
2022-12-08T21:51:50.651Z,99.55
2022-12-08T21:54:20.559Z,100.00
2022-12-08T21:56:51.799Z,100.00
2022-12-08T21:59:21.594Z,100.00
2022-12-08T22:01:53.155Z,100.00
2022-12-08T22:04:24.194Z,100.00
2022-12-08T22:06:54.205Z,100.00
2022-12-08T22:09:23.777Z,100.00
2022-12-08T22:11:53.117Z,100.00
2022-12-08T22:14:22.469Z,100.00
2022-12-08T22:16:53.385Z,100.00
2022-12-08T22:19:24.771Z,100.00
2022-12-08T22:21:55.081Z,100.00
2022-12-08T22:24:24.526Z,98.73
2022-12-08T22:26:53.797Z,100.00
2022-12-08T22:29:23.370Z,100.00
2022-12-08T22:31:54.247Z,100.00
2022-12-08T22:34:23.528Z,100.00
2022-12-08T22:36:52.834Z,100.00
2022-12-08T22:39:22.011Z,100.00
2022-12-08T22:41:52.606Z,100.00
2022-12-08T22:44:21.788Z,100.00
2022-12-08T22:46:51.016Z,100.00
2022-12-08T22:49:21.677Z,100.00
2022-12-08T22:51:50.821Z,100.00
2022-12-08T22:54:20.463Z,100.00
2022-12-08T22:56:49.855Z,100.00
2022-12-08T22:59:19.068Z,100.00
2022-12-08T23:01:48.364Z,100.00
2022-12-08T23:04:18.593Z,100.00
2022-12-08T23:06:49.424Z,100.00
2022-12-08T23:09:18.791Z,100.00
2022-12-08T23:11:48.078Z,100.00
2022-12-08T23:14:17.772Z,100.00
2022-12-08T23:16:47.346Z,100.00
2022-12-08T23:19:16.676Z,100.00
2022-12-08T23:21:45.988Z,100.00
2022-12-08T23:24:16.881Z,100.00
2022-12-08T23:26:46.142Z,100.00
2022-12-08T23:29:15.863Z,100.00
2022-12-08T23:31:45.268Z,100.00
2022-12-08T23:34:14.812Z,100.00
2022-12-08T23:36:44.316Z,100.00
2022-12-08T23:39:13.658Z,100.00
2022-12-08T23:41:44.458Z,100.00
2022-12-08T23:44:13.937Z,100.00
2022-12-08T23:46:43.191Z,100.00
2022-12-08T23:49:12.522Z,100.00
2022-12-08T23:51:41.925Z,100.00
2022-12-08T23:54:11.241Z,100.00
2022-12-08T23:56:40.777Z,100.00
2022-12-08T23:59:11.537Z,100.00
